createdAt,value
2023-08-29T00:00:06.246Z,1.42
2023-08-29T00:02:33.707Z,1.70
2023-08-29T00:05:00.359Z,1.40
2023-08-29T00:07:28.359Z,1.58
2023-08-29T00:09:54.839Z,1.33
2023-08-29T00:12:21.796Z,1.40
2023-08-29T00:14:48.405Z,1.52
2023-08-29T00:17:17.449Z,1.33
2023-08-29T00:19:43.910Z,1.30
2023-08-29T00:22:10.400Z,1.45
2023-08-29T00:24:36.855Z,1.60
2023-08-29T00:27:04.105Z,1.23
2023-08-29T00:29:30.581Z,1.42
2023-08-29T00:31:57.065Z,1.20
2023-08-29T00:34:23.551Z,1.38
2023-08-29T00:36:50.237Z,1.60
2023-08-29T00:39:16.692Z,1.42
2023-08-29T00:41:43.102Z,1.40
2023-08-29T00:44:09.515Z,1.30
2023-08-29T00:46:36.266Z,1.17
2023-08-29T00:49:02.988Z,1.25
2023-08-29T00:51:29.474Z,1.33
2023-08-29T00:53:56.097Z,1.38
2023-08-29T00:56:22.622Z,2.45
2023-08-29T00:58:49.240Z,2.00
2023-08-29T01:01:18.133Z,1.27
2023-08-29T01:03:45.034Z,2.00
2023-08-29T01:06:12.423Z,1.50
2023-08-29T01:08:39.186Z,1.50
2023-08-29T01:11:15.259Z,1.27
2023-08-29T01:13:47.694Z,1.33
2023-08-29T01:16:18.555Z,1.08
2023-08-29T01:18:46.490Z,1.20
2023-08-29T01:21:36.581Z,1.73
2023-08-29T01:24:08.551Z,1.50
2023-08-29T01:26:35.737Z,1.95
2023-08-29T01:29:03.890Z,1.40
2023-08-29T01:31:33.072Z,2.22
2023-08-29T01:34:00.022Z,1.58
2023-08-29T01:36:42.580Z,1.30
2023-08-29T01:39:09.181Z,1.90
2023-08-29T01:41:35.696Z,2.28
2023-08-29T01:44:06.375Z,1.88
2023-08-29T01:46:32.899Z,1.90
2023-08-29T01:49:02.711Z,1.70
2023-08-29T01:51:29.759Z,1.60
2023-08-29T01:53:57.387Z,2.47
2023-08-29T01:56:26.949Z,1.92
2023-08-29T01:58:55.373Z,2.00
2023-08-29T02:01:23.866Z,1.65
2023-08-29T02:03:51.736Z,2.88
2023-08-29T02:06:18.283Z,2.38
2023-08-29T02:08:45.744Z,2.42
2023-08-29T02:11:12.215Z,2.42
2023-08-29T02:13:38.633Z,2.65
2023-08-29T02:16:05.171Z,2.00
2023-08-29T02:18:31.640Z,2.50
2023-08-29T02:20:58.098Z,2.70
2023-08-29T02:23:24.612Z,2.40
2023-08-29T02:26:05.069Z,2.08
2023-08-29T02:31:05.006Z,2.65
2023-08-29T02:33:32.409Z,2.35
2023-08-29T02:35:58.970Z,2.78
2023-08-29T02:38:25.480Z,2.40
2023-08-29T02:40:51.937Z,2.20
2023-08-29T02:43:18.398Z,2.40
2023-08-29T02:45:44.910Z,2.15
2023-08-29T02:48:11.385Z,2.53
2023-08-29T02:50:38.253Z,2.30
2023-08-29T02:53:04.875Z,2.30
2023-08-29T02:55:31.346Z,2.30
2023-08-29T02:57:57.785Z,2.08
2023-08-29T03:00:24.244Z,2.35
2023-08-29T03:02:50.815Z,2.25
2023-08-29T03:05:17.310Z,2.10
2023-08-29T03:07:43.815Z,2.22
2023-08-29T03:10:10.678Z,2.35
2023-08-29T03:12:37.138Z,2.35
2023-08-29T03:15:03.775Z,2.70
2023-08-29T03:17:30.313Z,2.35
2023-08-29T03:19:56.796Z,2.13
2023-08-29T03:22:23.230Z,4.25
2023-08-29T03:24:49.648Z,2.50
2023-08-29T03:27:16.122Z,2.60
2023-08-29T03:29:42.584Z,2.40
2023-08-29T03:32:09.100Z,2.38
2023-08-29T03:34:35.544Z,2.47
2023-08-29T03:37:02.039Z,2.38
2023-08-29T03:39:28.476Z,2.50
2023-08-29T03:41:54.955Z,2.33
2023-08-29T03:44:21.415Z,2.40
2023-08-29T03:46:47.864Z,2.70
2023-08-29T03:49:14.314Z,3.20
2023-08-29T03:51:40.738Z,2.70
2023-08-29T03:54:07.226Z,2.88
2023-08-29T03:56:34.692Z,2.97
2023-08-29T03:59:03.036Z,2.92
2023-08-29T04:01:30.533Z,2.65
2023-08-29T04:03:57.295Z,2.50
2023-08-29T04:06:23.847Z,2.80
2023-08-29T04:08:50.306Z,2.50
2023-08-29T04:11:16.768Z,2.67
2023-08-29T04:13:43.212Z,2.38
2023-08-29T04:16:09.884Z,2.90
2023-08-29T04:18:36.305Z,2.50
2023-08-29T04:21:02.788Z,2.78
2023-08-29T04:23:29.256Z,2.60
2023-08-29T04:26:00.559Z,2.53
2023-08-29T04:28:27.384Z,3.00
2023-08-29T04:30:54.099Z,2.97
2023-08-29T04:33:20.629Z,2.83
2023-08-29T04:35:51.210Z,2.78
2023-08-29T04:38:17.648Z,2.92
2023-08-29T04:40:44.318Z,2.45
2023-08-29T04:43:10.753Z,2.40
2023-08-29T04:45:37.842Z,2.72
2023-08-29T04:48:05.021Z,3.58
2023-08-29T04:50:31.748Z,2.65
2023-08-29T04:52:58.201Z,2.67
2023-08-29T04:55:24.672Z,2.78
2023-08-29T04:57:53.011Z,2.80
2023-08-29T05:00:19.659Z,2.80
2023-08-29T05:02:46.184Z,3.13
2023-08-29T05:05:12.656Z,3.45
2023-08-29T05:07:39.118Z,4.28
2023-08-29T05:10:06.198Z,4.07
2023-08-29T05:12:32.623Z,3.65
2023-08-29T05:14:59.132Z,3.20
2023-08-29T05:17:26.646Z,2.83
2023-08-29T05:19:53.318Z,3.20
2023-08-29T05:22:20.173Z,3.05
2023-08-29T05:24:46.827Z,3.20
2023-08-29T05:27:13.516Z,3.50
2023-08-29T05:29:40.202Z,3.67
2023-08-29T05:32:06.919Z,3.28
2023-08-29T05:34:33.372Z,3.50
2023-08-29T05:36:59.809Z,3.53
2023-08-29T05:39:26.228Z,4.22
2023-08-29T05:41:52.664Z,3.83
2023-08-29T05:44:19.067Z,4.15
2023-08-29T05:46:45.620Z,3.67
2023-08-29T05:49:12.137Z,3.45
2023-08-29T05:51:38.567Z,3.63
2023-08-29T05:54:05.122Z,6.35
2023-08-29T05:56:31.580Z,3.88
2023-08-29T05:58:58.055Z,4.18
2023-08-29T06:01:24.575Z,4.22
2023-08-29T06:03:51.125Z,4.63
2023-08-29T06:06:17.809Z,4.60
2023-08-29T06:08:45.651Z,4.10
2023-08-29T06:11:12.333Z,4.28
2023-08-29T06:13:38.926Z,4.03
2023-08-29T06:16:06.054Z,4.32
2023-08-29T06:18:34.173Z,4.82
2023-08-29T06:21:01.132Z,4.65
2023-08-29T06:23:27.565Z,4.53
2023-08-29T06:25:55.220Z,4.50
2023-08-29T06:28:21.645Z,4.30
2023-08-29T06:30:48.112Z,4.47
2023-08-29T06:33:14.619Z,4.30
2023-08-29T06:35:41.074Z,3.65
2023-08-29T06:38:08.768Z,4.05
2023-08-29T06:40:36.267Z,4.22
2023-08-29T06:43:03.299Z,4.18
2023-08-29T06:45:29.771Z,4.40
2023-08-29T06:47:56.326Z,4.20
2023-08-29T06:50:22.835Z,4.05
2023-08-29T06:52:49.262Z,4.53
2023-08-29T06:55:17.242Z,5.15
2023-08-29T06:57:43.680Z,4.65
2023-08-29T07:00:12.079Z,5.82
2023-08-29T07:02:38.783Z,5.85
2023-08-29T07:05:06.020Z,6.13
2023-08-29T07:07:32.481Z,6.30
2023-08-29T07:09:58.933Z,5.60
2023-08-29T07:12:25.354Z,5.47
2023-08-29T07:14:51.764Z,5.20
2023-08-29T07:17:18.538Z,5.00
2023-08-29T07:19:45.042Z,5.10
2023-08-29T07:22:23.385Z,5.22
2023-08-29T07:24:51.126Z,4.78
2023-08-29T07:27:17.648Z,4.85
2023-08-29T07:29:44.328Z,4.75
2023-08-29T07:32:10.848Z,4.28
2023-08-29T07:34:40.482Z,4.18
2023-08-29T07:37:07.596Z,4.95
2023-08-29T07:39:34.142Z,4.45
2023-08-29T07:42:01.226Z,4.85
2023-08-29T07:44:27.729Z,3.97
2023-08-29T07:47:12.137Z,3.95
2023-08-29T07:49:40.426Z,4.15
2023-08-29T07:52:07.253Z,4.10
2023-08-29T07:54:33.719Z,4.25
2023-08-29T07:57:00.167Z,4.18
2023-08-29T07:59:26.633Z,4.82
2023-08-29T08:01:53.380Z,3.72
2023-08-29T08:04:20.001Z,5.05
2023-08-29T08:06:46.518Z,4.22
2023-08-29T08:09:14.084Z,4.30
2023-08-29T08:11:40.615Z,4.13
2023-08-29T08:14:07.058Z,4.05
2023-08-29T08:16:33.533Z,4.00
2023-08-29T08:18:59.986Z,3.63
2023-08-29T08:21:26.429Z,4.03
2023-08-29T08:23:53.332Z,4.05
2023-08-29T08:26:19.771Z,3.40
2023-08-29T08:28:46.226Z,4.13
2023-08-29T08:31:13.094Z,3.72
2023-08-29T08:33:41.931Z,3.97
2023-08-29T08:36:08.974Z,3.70
2023-08-29T08:38:35.526Z,3.65
2023-08-29T08:41:02.187Z,3.33
2023-08-29T08:43:30.690Z,3.70
2023-08-29T08:45:58.937Z,4.18
2023-08-29T08:48:25.961Z,3.83
2023-08-29T08:50:52.545Z,3.88
2023-08-29T08:53:22.740Z,3.80
2023-08-29T08:55:51.270Z,3.50
2023-08-29T08:58:19.574Z,3.22
2023-08-29T09:00:46.181Z,3.08
2023-08-29T09:03:15.800Z,3.17
2023-08-29T09:05:43.234Z,2.72
2023-08-29T09:08:09.977Z,2.72
2023-08-29T09:10:42.782Z,2.45
2023-08-29T09:13:16.816Z,2.65
2023-08-29T09:15:43.770Z,2.60
2023-08-29T09:18:14.721Z,3.00
2023-08-29T09:20:46.896Z,2.80
2023-08-29T09:23:24.060Z,2.53
2023-08-29T09:25:58.025Z,2.13
2023-08-29T09:28:28.597Z,2.20
2023-08-29T09:30:55.132Z,2.50
2023-08-29T09:33:25.084Z,2.10
2023-08-29T09:35:51.527Z,2.30
2023-08-29T09:38:19.490Z,2.40
2023-08-29T09:40:49.770Z,2.25
2023-08-29T09:43:18.201Z,2.10
2023-08-29T09:45:54.377Z,2.20
2023-08-29T09:48:21.186Z,2.17
2023-08-29T09:50:49.880Z,2.47
2023-08-29T09:53:18.111Z,1.80
2023-08-29T09:55:47.576Z,1.70
2023-08-29T09:58:16.293Z,1.77
2023-08-29T10:00:44.220Z,1.80
2023-08-29T10:03:12.148Z,1.52
2023-08-29T10:05:41.732Z,1.65
2023-08-29T10:08:40.042Z,1.50
2023-08-29T10:11:07.284Z,1.60
2023-08-29T10:13:35.817Z,1.50
2023-08-29T10:16:04.855Z,1.30
2023-08-29T10:18:33.114Z,1.45
2023-08-29T10:21:03.618Z,1.23
2023-08-29T10:23:31.708Z,1.30
2023-08-29T10:26:02.224Z,1.10
2023-08-29T10:28:30.248Z,1.08
2023-08-29T10:31:01.956Z,1.05
2023-08-29T10:33:28.707Z,1.10
2023-08-29T10:35:55.249Z,0.90
2023-08-29T10:38:22.265Z,0.80
2023-08-29T10:40:48.764Z,0.80
2023-08-29T10:43:19.989Z,0.50
2023-08-29T10:46:03.058Z,1.08
2023-08-29T10:48:52.612Z,0.80
2023-08-29T10:51:26.566Z,0.80
2023-08-29T10:53:55.199Z,0.90
2023-08-29T10:56:39.348Z,0.88
2023-08-29T10:59:06.123Z,1.08
2023-08-29T11:01:33.111Z,1.52
2023-08-29T11:04:12.211Z,1.30
2023-08-29T11:06:53.695Z,1.20
2023-08-29T11:09:24.665Z,0.98
2023-08-29T11:12:10.865Z,1.10
2023-08-29T11:14:57.035Z,1.10
2023-08-29T11:17:24.886Z,1.27
2023-08-29T11:20:03.370Z,1.00
2023-08-29T11:22:32.832Z,1.13
2023-08-29T11:27:29.869Z,0.82
2023-08-29T11:30:11.220Z,1.02
2023-08-29T11:32:50.570Z,0.93
2023-08-29T11:35:17.114Z,0.80
2023-08-29T11:37:43.618Z,0.88
2023-08-29T11:40:13.782Z,0.93
2023-08-29T11:43:09.646Z,0.80
2023-08-29T11:45:46.969Z,1.10
2023-08-29T11:48:22.662Z,0.80
2023-08-29T11:50:49.159Z,0.80
2023-08-29T11:53:28.039Z,0.85
2023-08-29T11:55:54.679Z,0.80
2023-08-29T11:58:25.019Z,0.70
2023-08-29T12:00:53.261Z,1.00
2023-08-29T12:03:21.456Z,0.80
2023-08-29T12:05:48.679Z,1.02
2023-08-29T12:08:16.012Z,0.90
2023-08-29T12:10:53.846Z,0.80
2023-08-29T12:13:20.672Z,1.00
2023-08-29T12:15:47.209Z,0.85
2023-08-29T12:18:27.086Z,0.93
2023-08-29T12:21:10.543Z,0.90
2023-08-29T12:23:37.003Z,0.90
2023-08-29T12:26:04.556Z,0.90
2023-08-29T12:28:30.975Z,0.80
2023-08-29T12:30:58.030Z,0.80
2023-08-29T12:33:24.780Z,0.70
2023-08-29T12:35:51.737Z,1.00
2023-08-29T12:38:19.361Z,0.93
2023-08-29T12:40:46.472Z,0.80
2023-08-29T12:43:14.052Z,0.80
2023-08-29T12:45:52.757Z,0.80
2023-08-29T12:48:25.263Z,0.63
2023-08-29T12:50:51.748Z,0.80
2023-08-29T12:53:18.283Z,0.80
2023-08-29T12:55:44.911Z,0.73
2023-08-29T12:58:11.541Z,0.90
2023-08-29T13:00:39.307Z,1.00
2023-08-29T13:03:06.851Z,0.77
2023-08-29T13:05:33.673Z,1.00
2023-08-29T13:08:00.161Z,0.98
2023-08-29T13:10:26.675Z,0.65
2023-08-29T13:12:53.475Z,0.90
2023-08-29T13:15:20.122Z,0.90
2023-08-29T13:17:48.279Z,0.82
2023-08-29T13:20:14.917Z,0.80
2023-08-29T13:22:41.796Z,1.00
2023-08-29T13:25:08.869Z,0.90
2023-08-29T13:27:36.287Z,0.90
2023-08-29T13:30:02.864Z,0.82
2023-08-29T13:32:29.360Z,0.90
2023-08-29T13:34:55.848Z,0.85
2023-08-29T13:37:22.294Z,0.82
2023-08-29T13:39:56.101Z,1.02
2023-08-29T13:42:23.557Z,0.90
2023-08-29T13:44:55.707Z,0.80
2023-08-29T13:47:23.336Z,1.10
2023-08-29T13:49:49.845Z,0.82
2023-08-29T13:52:16.323Z,1.00
2023-08-29T13:54:42.765Z,1.10
2023-08-29T13:57:09.213Z,0.82
2023-08-29T13:59:35.672Z,1.10
2023-08-29T14:02:02.798Z,0.90
2023-08-29T14:04:29.353Z,1.10
2023-08-29T14:06:55.804Z,1.00
2023-08-29T14:09:22.266Z,0.80
2023-08-29T14:11:48.687Z,0.65
2023-08-29T14:14:15.164Z,0.98
2023-08-29T14:16:43.509Z,0.90
2023-08-29T14:19:10.696Z,0.97
2023-08-29T14:21:37.233Z,0.98
2023-08-29T14:24:03.851Z,0.90
2023-08-29T14:26:30.297Z,0.70
2023-08-29T14:28:56.765Z,0.80
2023-08-29T14:31:24.386Z,1.00
2023-08-29T14:33:51.860Z,0.90
2023-08-29T14:36:18.840Z,0.80
2023-08-29T14:38:45.266Z,1.00
2023-08-29T14:41:13.507Z,0.70
2023-08-29T14:43:40.880Z,0.93
2023-08-29T14:46:08.078Z,0.88
2023-08-29T14:48:36.434Z,0.93
2023-08-29T14:51:02.916Z,0.80
2023-08-29T14:53:30.383Z,1.38
2023-08-29T14:55:57.546Z,0.80
2023-08-29T14:58:25.627Z,0.98
2023-08-29T15:00:52.177Z,0.90
2023-08-29T15:03:18.755Z,0.93
2023-08-29T15:05:45.397Z,0.80
2023-08-29T15:08:11.941Z,0.77
2023-08-29T15:10:38.420Z,0.82
2023-08-29T15:13:06.222Z,0.77
2023-08-29T15:15:32.660Z,0.95
2023-08-29T15:17:59.218Z,0.90
2023-08-29T15:20:26.243Z,0.90
2023-08-29T15:22:53.022Z,0.70
2023-08-29T15:25:19.994Z,0.80
2023-08-29T15:27:46.479Z,0.70
2023-08-29T15:30:13.391Z,0.70
2023-08-29T15:32:40.060Z,0.93
2023-08-29T15:35:08.436Z,0.60
2023-08-29T15:37:34.973Z,0.80
2023-08-29T15:40:01.489Z,0.70
2023-08-29T15:42:27.968Z,1.13
2023-08-29T15:44:54.393Z,0.80
2023-08-29T15:47:22.722Z,1.10
2023-08-29T15:49:49.230Z,0.70
2023-08-29T15:52:15.644Z,0.70
2023-08-29T15:54:42.081Z,0.60
2023-08-29T15:57:08.576Z,0.90
2023-08-29T15:59:34.999Z,0.60
2023-08-29T16:02:01.546Z,0.82
2023-08-29T16:04:28.021Z,0.68
2023-08-29T16:06:54.661Z,0.85
2023-08-29T16:09:21.111Z,0.75
2023-08-29T16:11:47.597Z,0.90
2023-08-29T16:14:14.130Z,0.77
2023-08-29T16:16:40.599Z,0.90
2023-08-29T16:19:07.052Z,0.90
2023-08-29T16:21:33.800Z,0.82
2023-08-29T16:24:00.247Z,1.00
2023-08-29T16:26:26.863Z,0.70
2023-08-29T16:28:53.318Z,1.20
2023-08-29T16:31:19.843Z,1.08
2023-08-29T16:33:46.401Z,1.65
2023-08-29T16:36:12.838Z,1.25
2023-08-29T16:38:39.362Z,1.10
2023-08-29T16:41:05.859Z,1.25
2023-08-29T16:43:32.383Z,1.00
2023-08-29T16:45:58.872Z,0.93
2023-08-29T16:48:25.372Z,1.13
2023-08-29T16:50:52.202Z,0.90
2023-08-29T16:53:18.708Z,1.00
2023-08-29T16:55:46.176Z,0.80
2023-08-29T16:58:12.834Z,1.00
2023-08-29T17:00:39.854Z,0.90
2023-08-29T17:03:11.162Z,0.82
2023-08-29T17:05:38.696Z,0.90
2023-08-29T17:08:07.196Z,0.77
2023-08-29T17:10:34.252Z,0.90
2023-08-29T17:13:00.769Z,0.70
2023-08-29T17:15:27.801Z,0.75
2023-08-29T17:17:54.317Z,0.63
2023-08-29T17:20:21.455Z,0.95
2023-08-29T17:22:49.711Z,0.77
2023-08-29T17:25:16.518Z,0.70
2023-08-29T17:27:43.345Z,0.60
2023-08-29T17:30:10.101Z,0.80
2023-08-29T17:32:36.560Z,0.60
2023-08-29T17:35:03.552Z,0.77
2023-08-29T17:37:30.034Z,0.80
2023-08-29T17:39:56.593Z,0.70
2023-08-29T17:42:23.009Z,0.60
2023-08-29T17:44:51.319Z,0.63
2023-08-29T17:47:17.800Z,0.60
2023-08-29T17:49:44.509Z,0.90
2023-08-29T17:52:11.633Z,0.75
2023-08-29T17:54:38.182Z,0.80
2023-08-29T17:57:04.678Z,0.70
2023-08-29T17:59:31.183Z,0.80
2023-08-29T18:01:57.701Z,1.23
2023-08-29T18:04:24.201Z,0.85
2023-08-29T18:06:50.701Z,0.65
2023-08-29T18:09:19.223Z,0.80
2023-08-29T18:11:45.780Z,0.77
2023-08-29T18:14:12.303Z,0.60
2023-08-29T18:16:38.806Z,0.65
2023-08-29T18:19:05.365Z,0.55
2023-08-29T18:21:31.870Z,0.70
2023-08-29T18:23:58.364Z,0.60
2023-08-29T18:26:24.872Z,0.80
2023-08-29T18:28:51.429Z,0.82
2023-08-29T18:31:18.123Z,0.50
2023-08-29T18:33:44.638Z,0.70
2023-08-29T18:36:11.876Z,0.70
2023-08-29T18:38:38.684Z,0.75
2023-08-29T18:41:05.149Z,0.77
2023-08-29T18:43:31.641Z,0.70
2023-08-29T18:45:58.428Z,1.00
2023-08-29T18:48:25.046Z,0.90
2023-08-29T18:50:51.833Z,0.70
2023-08-29T18:53:18.311Z,0.90
2023-08-29T18:55:45.120Z,0.90
2023-08-29T18:58:12.584Z,0.68
2023-08-29T19:00:39.247Z,0.80
2023-08-29T19:03:07.097Z,1.00
2023-08-29T19:05:36.359Z,0.70
2023-08-29T19:08:05.437Z,0.70
2023-08-29T19:10:32.247Z,0.82
2023-08-29T19:12:58.699Z,0.68
2023-08-29T19:15:25.474Z,0.73
2023-08-29T19:17:52.565Z,0.73
2023-08-29T19:20:19.070Z,0.73
2023-08-29T19:22:45.531Z,0.70
2023-08-29T19:25:11.998Z,1.10
2023-08-29T19:27:38.501Z,0.70
2023-08-29T19:30:08.938Z,1.30
2023-08-29T19:32:36.244Z,0.85
2023-08-29T19:35:05.069Z,1.08
2023-08-29T19:37:32.327Z,0.88
2023-08-29T19:39:59.074Z,1.00
2023-08-29T19:42:25.554Z,0.90
2023-08-29T19:44:52.122Z,0.73
2023-08-29T19:47:20.064Z,0.95
2023-08-29T19:49:48.499Z,1.00
2023-08-29T19:52:15.222Z,1.10
2023-08-29T19:54:41.685Z,1.08
2023-08-29T19:57:08.147Z,0.90
2023-08-29T19:59:36.322Z,1.10
2023-08-29T20:02:03.143Z,0.95
2023-08-29T20:04:29.701Z,0.80
2023-08-29T20:06:56.184Z,0.80
2023-08-29T20:09:23.601Z,1.00
2023-08-29T20:11:50.251Z,1.30
2023-08-29T20:14:16.713Z,1.02
2023-08-29T20:16:43.260Z,1.13
2023-08-29T20:19:10.512Z,1.25
2023-08-29T20:21:36.941Z,1.00
2023-08-29T20:24:03.586Z,0.95
2023-08-29T20:26:31.406Z,1.00
2023-08-29T20:29:00.249Z,1.20
2023-08-29T20:31:27.006Z,1.00
2023-08-29T20:33:53.427Z,1.40
2023-08-29T20:36:19.914Z,1.10
2023-08-29T20:38:46.345Z,1.13
2023-08-29T20:41:13.177Z,1.10
2023-08-29T20:43:39.675Z,1.10
2023-08-29T20:46:06.129Z,0.93
2023-08-29T20:48:32.571Z,1.13
2023-08-29T20:51:01.757Z,1.15
2023-08-29T20:53:36.049Z,1.00
2023-08-29T20:56:03.716Z,1.00
2023-08-29T20:58:30.294Z,1.10
2023-08-29T21:01:00.772Z,1.10
2023-08-29T21:03:30.160Z,1.10
2023-08-29T21:05:58.086Z,1.30
2023-08-29T21:08:25.571Z,0.90
2023-08-29T21:10:52.911Z,1.23
2023-08-29T21:13:20.849Z,1.65
2023-08-29T21:15:48.334Z,1.02
2023-08-29T21:18:18.714Z,1.40
2023-08-29T21:23:22.719Z,1.45
2023-08-29T21:25:49.975Z,1.38
2023-08-29T21:28:17.748Z,0.98
2023-08-29T21:30:45.355Z,1.35
2023-08-29T21:33:12.162Z,1.30
2023-08-29T21:35:40.026Z,1.30
2023-08-29T21:38:07.791Z,1.50
2023-08-29T21:40:38.643Z,1.38
2023-08-29T21:43:10.820Z,1.27
2023-08-29T21:45:38.607Z,1.33
2023-08-29T21:48:07.267Z,1.42
2023-08-29T21:50:41.108Z,1.42
2023-08-29T21:53:08.955Z,1.05
2023-08-29T21:55:36.869Z,1.20
2023-08-29T21:58:04.827Z,1.27
2023-08-29T22:00:32.428Z,1.25
2023-08-29T22:03:00.374Z,1.20
2023-08-29T22:05:29.840Z,1.45
2023-08-29T22:07:56.858Z,1.60
2023-08-29T22:10:23.458Z,1.40
2023-08-29T22:12:50.653Z,1.42
2023-08-29T22:15:17.441Z,1.50
2023-08-29T22:17:45.470Z,1.20
2023-08-29T22:20:12.982Z,1.30
2023-08-29T22:22:40.142Z,1.55
2023-08-29T22:25:07.140Z,1.35
2023-08-29T22:27:33.570Z,1.20
2023-08-29T22:29:59.981Z,1.50
2023-08-29T22:32:26.474Z,1.50
2023-08-29T22:34:53.255Z,1.70
2023-08-29T22:37:19.706Z,1.50
2023-08-29T22:39:48.402Z,1.50
2023-08-29T22:42:15.436Z,1.45
2023-08-29T22:44:43.894Z,1.80
2023-08-29T22:47:16.652Z,1.40
2023-08-29T22:49:44.213Z,1.38
2023-08-29T22:52:10.808Z,1.88
2023-08-29T22:54:37.259Z,1.58
2023-08-29T22:57:03.959Z,1.80
2023-08-29T22:59:30.680Z,1.50
2023-08-29T23:01:58.671Z,1.80
2023-08-29T23:04:28.201Z,1.80
2023-08-29T23:07:05.282Z,1.60
2023-08-29T23:09:32.843Z,1.50
2023-08-29T23:11:59.527Z,1.85
2023-08-29T23:14:28.187Z,1.80
2023-08-29T23:16:55.906Z,1.60
2023-08-29T23:19:26.638Z,1.63
2023-08-29T23:21:53.955Z,1.73
2023-08-29T23:24:21.041Z,2.10
2023-08-29T23:26:48.866Z,1.30
2023-08-29T23:29:15.441Z,1.65
2023-08-29T23:31:42.007Z,1.48
2023-08-29T23:34:09.352Z,1.35
2023-08-29T23:36:35.872Z,1.35
2023-08-29T23:39:02.779Z,1.40
2023-08-29T23:41:29.860Z,1.38
2023-08-29T23:43:56.306Z,1.50
2023-08-29T23:46:22.903Z,1.63
2023-08-29T23:48:49.476Z,1.27
2023-08-29T23:51:16.167Z,1.50
2023-08-29T23:53:42.665Z,1.58
2023-08-29T23:56:09.129Z,1.45
2023-08-29T23:58:35.594Z,1.75
